Time;durP1;ratioP1;P1;durP2;ratioP2;P2;SDS_P1;SDS_P2;PMS_P1;PMS_P2;Temp;Humidity;BMP_temperature;BMP_pressure;BME280_temperature;BME280_humidity;BME280_pressure;Samples;Min_cycle;Max_cycle;Signal;HPM_P1;HPM_P2
2024/01/13 00:04:32;;;;;;;7.85;7.25;;;;;;;1.88;100.00;102154.00;9991327;29;20074;-69
2024/01/13 00:09:29;;;;;;;7.40;6.70;;;;;;;1.86;100.00;102156.94;9989697;29;20036;-69
2024/01/13 00:14:25;;;;;;;7.53;6.75;;;;;;;1.83;100.00;102143.06;9994308;29;20496;-69
2024/01/13 00:19:22;;;;;;;11.13;7.25;;;;;;;1.85;100.00;102143.69;9989255;29;20071;-68
2024/01/13 00:24:18;;;;;;;7.82;7.20;;;;;;;1.91;100.00;102132.00;9995635;29;20120;-68
2024/01/13 00:29:15;;;;;;;8.63;7.25;;;;;;;1.86;100.00;102124.59;9993569;29;20138;-68
2024/01/13 00:34:11;;;;;;;11.32;7.32;;;;;;;1.88;100.00;102116.25;9993431;29;20051;-68
2024/01/13 00:39:08;;;;;;;11.18;7.47;;;;;;;1.84;100.00;102113.19;9993072;29;20047;-69
2024/01/13 00:44:05;;;;;;;7.95;7.25;;;;;;;1.81;100.00;102105.56;9976118;29;20143;-69
2024/01/13 00:49:01;;;;;;;9.70;7.30;;;;;;;1.83;100.00;102089.97;9991292;29;20052;-69
2024/01/13 00:53:58;;;;;;;8.35;7.65;;;;;;;1.86;100.00;102092.22;9985901;29;20155;-69
2024/01/13 00:58:55;;;;;;;9.18;8.43;;;;;;;1.88;100.00;102084.72;9993511;29;20086;-67
2024/01/13 01:03:51;;;;;;;9.43;7.35;;;;;;;1.92;100.00;102089.66;10010865;29;20048;-72
2024/01/13 01:08:48;;;;;;;9.18;7.72;;;;;;;1.95;100.00;102073.00;9984226;29;20060;-68
2024/01/13 01:13:44;;;;;;;7.50;6.82;;;;;;;1.88;100.00;102071.25;9985479;29;20052;-68
2024/01/13 01:18:41;;;;;;;7.50;6.88;;;;;;;1.88;100.00;102059.59;9993726;29;20044;-69
2024/01/13 01:23:42;;;;;;;9.60;6.97;;;;;;;1.92;100.00;102046.50;9992157;29;20048;-68
2024/01/13 01:28:38;;;;;;;8.27;7.57;;;;;;;1.94;100.00;102039.00;9987102;29;20131;-70
2024/01/13 01:33:35;;;;;;;11.43;7.50;;;;;;;1.93;100.00;102030.09;9989863;29;20470;-69
2024/01/13 01:38:33;;;;;;;8.90;8.10;;;;;;;1.94;100.00;102017.44;9989310;29;20550;-70
2024/01/13 01:43:39;;;;;;;9.80;8.40;;;;;;;1.96;100.00;102012.63;9988916;29;20595;-69
2024/01/13 01:48:41;;;;;;;10.95;9.20;;;;;;;1.98;100.00;102008.66;9996655;29;20555;-70
2024/01/13 01:53:42;;;;;;;10.25;9.13;;;;;;;2.03;100.00;101994.47;9999831;29;20052;-69
2024/01/13 01:58:40;;;;;;;16.75;10.45;;;;;;;2.00;100.00;101994.94;9994787;29;20044;-69
2024/01/13 02:03:38;;;;;;;10.98;9.05;;;;;;;1.99;100.00;101995.97;9995774;29;20056;-70
2024/01/13 02:08:36;;;;;;;11.00;10.00;;;;;;;2.02;100.00;101995.50;10002023;29;20052;-69
2024/01/13 02:13:39;;;;;;;10.57;9.63;;;;;;;2.00;100.00;101978.75;9995044;29;20080;-69
2024/01/13 02:18:35;;;;;;;9.52;8.82;;;;;;;1.99;100.00;101961.72;9993680;29;20556;-69
2024/01/13 02:23:37;;;;;;;10.23;9.02;;;;;;;2.04;100.00;101958.34;10009266;29;20052;-71
2024/01/13 02:28:34;;;;;;;12.05;8.50;;;;;;;2.03;100.00;101956.72;10000115;29;20112;-71
2024/01/13 02:33:42;;;;;;;9.48;8.25;;;;;;;2.03;100.00;101956.72;9999166;29;20453;-69
2024/01/13 02:38:39;;;;;;;10.45;8.40;;;;;;;2.01;100.00;101950.72;9994404;29;20461;-73
2024/01/13 02:43:36;;;;;;;8.90;8.13;;;;;;;2.01;100.00;101938.03;9986449;29;20612;-75
2024/01/13 02:48:41;;;;;;;9.75;8.85;;;;;;;2.03;100.00;101930.53;9994624;29;20056;-76
2024/01/13 02:53:39;;;;;;;8.68;8.05;;;;;;;2.02;100.00;101918.13;9974276;29;20617;-73
2024/01/13 02:58:36;;;;;;;10.20;9.30;;;;;;;2.05;100.00;101914.94;9975150;29;20432;-72
2024/01/13 03:03:41;;;;;;;9.20;8.45;;;;;;;2.04;100.00;101899.00;9984007;29;20179;-73
2024/01/13 03:08:38;;;;;;;10.57;8.95;;;;;;;2.08;100.00;101894.78;9978856;29;20433;-73
2024/01/13 03:13:38;;;;;;;9.88;9.07;;;;;;;2.07;100.00;101879.66;9989565;29;20048;-73
2024/01/13 03:18:35;;;;;;;9.05;8.32;;;;;;;2.00;100.00;101871.66;9989415;29;20052;-71
2024/01/13 03:23:37;;;;;;;10.85;9.45;;;;;;;2.11;100.00;101851.13;10001111;29;20051;-73
2024/01/13 03:28:34;;;;;;;11.40;9.23;;;;;;;2.05;100.00;101852.09;9997749;29;20044;-72
2024/01/13 03:33:37;;;;;;;10.55;9.45;;;;;;;2.07;100.00;101849.97;9991231;29;20692;-73
2024/01/13 03:38:35;;;;;;;11.00;9.93;;;;;;;2.05;100.00;101846.69;9998814;29;20773;-73
2024/01/13 03:43:39;;;;;;;10.52;9.48;;;;;;;2.02;100.00;101844.44;9993471;29;20068;-72
2024/01/13 03:48:35;;;;;;;10.38;9.48;;;;;;;2.03;100.00;101838.81;9991586;29;20532;-73
2024/01/13 03:53:32;;;;;;;11.02;10.00;;;;;;;1.96;100.00;101845.38;9991284;29;20131;-72
2024/01/13 03:58:31;;;;;;;13.35;9.52;;;;;;;2.01;100.00;101840.13;9977632;29;20045;-72
2024/01/13 04:03:27;;;;;;;11.65;9.73;;;;;;;1.99;100.00;101826.84;9966315;29;20048;-72
2024/01/13 04:08:24;;;;;;;10.35;9.45;;;;;;;1.97;100.00;101822.75;9974241;29;20069;-72
2024/01/13 04:13:21;;;;;;;11.15;10.20;;;;;;;1.96;100.00;101811.13;9964762;29;20052;-72
2024/01/13 04:18:17;;;;;;;12.40;11.20;;;;;;;1.94;100.00;101807.03;10036191;29;20044;-72
2024/01/13 04:23:14;;;;;;;11.30;10.07;;;;;;;1.97;100.00;101801.16;9983584;29;20470;-72
2024/01/13 04:28:10;;;;;;;11.98;10.70;;;;;;;1.93;100.00;101795.44;10037558;29;20492;-73
2024/01/13 04:33:07;;;;;;;14.68;11.48;;;;;;;1.95;100.00;101797.88;9961595;29;20508;-72
2024/01/13 04:38:03;;;;;;;15.75;11.95;;;;;;;1.97;100.00;101795.78;10023966;29;20135;-72
2024/01/13 04:43:00;;;;;;;12.00;10.88;;;;;;;1.89;100.00;101789.66;9960342;29;20063;-72
2024/01/13 04:47:58;;;;;;;11.45;10.35;;;;;;;1.89;100.00;101776.19;9997400;29;20412;-72
2024/01/13 04:52:54;;;;;;;12.13;10.50;;;;;;;1.93;100.00;101759.53;9960189;29;20049;-72
2024/01/13 04:57:51;;;;;;;10.23;9.25;;;;;;;1.95;100.00;101765.50;10011128;29;20052;-72
2024/01/13 05:02:47;;;;;;;11.10;10.00;;;;;;;1.86;100.00;101744.31;9998092;29;20079;-72
2024/01/13 05:07:52;;;;;;;10.50;9.52;;;;;;;1.87;100.00;101732.44;9969658;29;20048;-72
2024/01/13 05:12:49;;;;;;;11.35;10.45;;;;;;;1.88;100.00;101723.31;9999353;29;20048;-72
2024/01/13 05:17:45;;;;;;;11.48;10.45;;;;;;;1.86;100.00;101720.03;9983242;29;20077;-72
2024/01/13 05:22:42;;;;;;;11.25;10.35;;;;;;;1.87;100.00;101721.66;9959268;29;20531;-72
2024/01/13 05:27:43;;;;;;;11.20;10.20;;;;;;;1.93;100.00;101708.28;10001025;29;20047;-72
2024/01/13 05:32:39;;;;;;;11.00;9.95;;;;;;;1.86;100.00;101701.16;9997223;29;20056;-72
2024/01/13 05:37:36;;;;;;;11.20;10.20;;;;;;;1.85;100.00;101694.09;10031450;29;20056;-72
2024/01/13 05:42:33;;;;;;;11.20;10.10;;;;;;;1.86;100.00;101676.88;10000877;29;20127;-72
2024/01/13 05:47:30;;;;;;;12.50;11.20;;;;;;;1.85;100.00;101686.00;9990805;29;20071;-72
2024/01/13 05:52:26;;;;;;;12.18;10.88;;;;;;;1.87;100.00;101673.09;9987469;29;20048;-73
2024/01/13 05:57:23;;;;;;;16.27;11.05;;;;;;;1.87;100.00;101662.31;10001658;29;20048;-73
2024/01/13 06:02:20;;;;;;;11.98;10.80;;;;;;;1.84;100.00;101657.41;9991386;29;20048;-71
2024/01/13 06:07:16;;;;;;;12.50;11.20;;;;;;;1.78;100.00;101647.56;9986396;29;20048;-72
2024/01/13 06:12:14;;;;;;;12.48;10.43;;;;;;;1.78;100.00;101641.34;9976677;29;20051;-72
2024/01/13 06:17:10;;;;;;;11.70;10.65;;;;;;;1.81;100.00;101636.31;9993039;29;20040;-72
2024/01/13 06:22:07;;;;;;;12.23;10.43;;;;;;;1.82;100.00;101632.56;9995720;29;20112;-72
2024/01/13 06:27:03;;;;;;;11.68;10.48;;;;;;;1.83;100.00;101622.59;9999063;29;20048;-72
2024/01/13 06:32:00;;;;;;;11.35;10.25;;;;;;;1.82;100.00;101610.97;9995448;29;20072;-72
2024/01/13 06:36:56;;;;;;;12.65;10.63;;;;;;;1.76;100.00;101606.53;9992119;29;20062;-73
2024/01/13 06:41:53;;;;;;;12.13;10.50;;;;;;;1.76;100.00;101595.75;10001943;29;20045;-72
2024/01/13 06:46:49;;;;;;;11.88;10.68;;;;;;;1.72;100.00;101570.34;10022653;29;20052;-72
2024/01/13 06:51:46;;;;;;;11.38;10.30;;;;;;;1.70;100.00;101542.78;9995255;29;20060;-72
2024/01/13 06:56:42;;;;;;;13.70;10.50;;;;;;;1.66;100.00;101541.63;9995119;29;20632;-73
2024/01/13 07:01:39;;;;;;;12.43;11.13;;;;;;;1.73;100.00;101523.44;10001913;29;20138;-72
2024/01/13 07:06:36;;;;;;;11.45;10.35;;;;;;;1.70;100.00;101532.00;9991045;29;20500;-72
2024/01/13 07:11:33;;;;;;;13.10;11.75;;;;;;;1.74;100.00;101537.72;9993599;29;20066;-72
2024/01/13 07:16:32;;;;;;;14.27;10.65;;;;;;;1.71;100.00;101538.19;9995385;29;20060;-72
2024/01/13 07:21:29;;;;;;;11.23;10.13;;;;;;;1.70;100.00;101537.41;10001230;29;20072;-72
2024/01/13 07:26:25;;;;;;;11.75;9.90;;;;;;;1.69;100.00;101535.75;9984084;29;20127;-73
2024/01/13 07:31:22;;;;;;;11.25;10.02;;;;;;;1.72;100.00;101524.50;9962724;29;20104;-72
2024/01/13 07:36:18;;;;;;;12.80;9.27;;;;;;;1.70;100.00;101498.84;9985307;29;20064;-72
2024/01/13 07:41:16;;;;;;;8.80;8.10;;;;;;;1.74;100.00;101506.22;10005379;29;20079;-73
2024/01/13 07:46:13;;;;;;;8.77;8.05;;;;;;;1.75;100.00;101493.53;9996973;29;20044;-73
2024/01/13 07:51:09;;;;;;;9.75;8.77;;;;;;;1.75;100.00;101491.66;9992027;29;20056;-72
2024/01/13 07:56:19;;;;;;;10.20;9.30;;;;;;;1.81;100.00;101496.09;9979489;29;20109;-72
2024/01/13 08:01:18;;;;;;;8.60;7.82;;;;;;;1.80;100.00;101489.06;9968017;29;20055;-73
2024/01/13 08:06:29;;;;;;;8.35;7.65;;;;;;;1.75;100.00;101471.97;9993321;29;20059;-72
2024/01/13 08:11:25;;;;;;;7.85;7.05;;;;;;;1.82;100.00;101481.53;9993647;29;20551;-73
2024/01/13 08:16:33;;;;;;;8.57;7.25;;;;;;;1.76;100.00;101454.72;9979426;29;20041;-72
2024/01/13 08:21:29;;;;;;;8.55;7.60;;;;;;;1.76;100.00;101450.13;9990814;29;20052;-73
2024/01/13 08:26:36;;;;;;;9.50;7.47;;;;;;;1.79;100.00;101449.69;10014338;29;20071;-72
2024/01/13 08:31:33;;;;;;;7.95;7.25;;;;;;;1.77;100.00;101429.41;10005722;29;20040;-72
2024/01/13 08:36:36;;;;;;;7.47;6.88;;;;;;;1.74;100.00;101414.53;10002600;29;20115;-73
2024/01/13 08:41:33;;;;;;;8.25;6.93;;;;;;;1.78;100.00;101410.28;9997581;29;20115;-72
2024/01/13 08:46:31;;;;;;;8.10;7.40;;;;;;;1.82;100.00;101411.44;9990157;29;20051;-72
2024/01/13 08:51:27;;;;;;;7.93;6.90;;;;;;;1.85;100.00;101427.13;9995007;29;20499;-72
2024/01/13 08:56:34;;;;;;;7.93;7.22;;;;;;;1.91;100.00;101421.84;9978367;29;20497;-72
2024/01/13 09:01:30;;;;;;;7.80;7.00;;;;;;;1.94;100.00;101418.66;9968191;29;20064;-73
2024/01/13 09:06:34;;;;;;;8.05;7.35;;;;;;;1.92;100.00;101410.78;9990528;29;20051;-72
2024/01/13 09:11:31;;;;;;;7.35;6.63;;;;;;;1.97;100.00;101416.28;9990275;29;20067;-73
2024/01/13 09:16:38;;;;;;;7.80;7.10;;;;;;;2.07;100.00;101412.94;9990527;29;20052;-72
2024/01/13 09:21:35;;;;;;;11.05;7.53;;;;;;;2.04;100.00;101408.03;9997036;29;20455;-73
2024/01/13 09:26:44;;;;;;;7.22;6.72;;;;;;;2.04;100.00;101402.63;10012538;29;20056;-72
2024/01/13 09:31:45;;;;;;;11.20;7.60;;;;;;;2.08;100.00;101382.19;9981514;29;20508;-73
2024/01/13 09:36:44;;;;;;;7.40;6.80;;;;;;;2.05;100.00;101374.59;10013429;29;20161;-72
2024/01/13 09:41:47;;;;;;;7.85;7.20;;;;;;;2.03;100.00;101379.44;9982884;29;20536;-72
2024/01/13 09:46:46;;;;;;;7.95;7.30;;;;;;;2.05;100.00;101380.00;9981596;29;20490;-73
2024/01/13 09:51:44;;;;;;;7.55;6.93;;;;;;;2.06;100.00;101378.94;9994484;29;20080;-73
2024/01/13 09:56:45;;;;;;;8.40;7.28;;;;;;;2.06;100.00;101362.75;10001459;29;20052;-73
2024/01/13 10:01:42;;;;;;;7.57;6.88;;;;;;;2.05;100.00;101366.53;9988126;29;20445;-73
2024/01/13 10:06:39;;;;;;;7.80;7.10;;;;;;;2.10;100.00;101358.50;9975123;29;20496;-73
2024/01/13 10:11:36;;;;;;;7.60;6.90;;;;;;;2.11;100.00;101341.25;9995550;29;20507;-73
2024/01/13 10:16:34;;;;;;;7.60;7.00;;;;;;;2.10;100.00;101350.41;9992449;29;20044;-72
2024/01/13 10:21:30;;;;;;;7.30;6.70;;;;;;;2.12;100.00;101329.41;10001494;29;20052;-73
2024/01/13 10:26:35;;;;;;;8.23;7.53;;;;;;;2.10;100.00;101320.72;9996257;29;20128;-73
2024/01/13 10:31:32;;;;;;;7.97;7.28;;;;;;;2.14;100.00;101307.59;10003100;29;20466;-72
2024/01/13 10:36:34;;;;;;;;;;;;;;;2.16;100.00;101295.47;9988783;29;20059;-73
2024/01/13 10:41:33;;;;;;;8.05;7.30;;;;;;;2.14;100.00;101278.72;10002874;29;19930;-73
2024/01/13 10:46:33;;;;;;;7.63;7.03;;;;;;;2.16;100.00;101273.91;9984677;29;20056;-73
2024/01/13 10:51:36;;;;;;;7.38;6.80;;;;;;;2.21;100.00;101248.88;9983941;29;20056;-73
2024/01/13 10:56:35;;;;;;;8.40;7.70;;;;;;;2.26;100.00;101238.94;9995647;29;20514;-73
2024/01/13 11:01:32;;;;;;;8.95;8.15;;;;;;;2.29;100.00;101241.13;10001770;29;20052;-73
2024/01/13 11:06:30;;;;;;;8.35;7.57;;;;;;;2.30;100.00;101223.91;9995129;29;20135;-73
2024/01/13 11:11:38;;;;;;;8.32;7.57;;;;;;;2.40;100.00;101220.50;10000820;29;20056;-73
2024/01/13 11:16:38;;;;;;;8.93;8.13;;;;;;;2.42;100.00;101193.28;9994965;29;20056;-73
2024/01/13 11:21:35;;;;;;;8.32;7.60;;;;;;;2.40;100.00;101200.81;10001241;29;20117;-73
2024/01/13 11:26:41;;;;;;;7.97;7.28;;;;;;;2.31;100.00;101187.75;9982916;29;20045;-73
2024/01/13 11:31:42;;;;;;;7.75;7.00;;;;;;;2.35;100.00;101171.06;9994903;29;20048;-73
2024/01/13 11:36:50;;;;;;;8.00;7.40;;;;;;;2.43;100.00;101151.72;9993203;29;20056;-73
2024/01/13 11:41:57;;;;;;;8.52;7.90;;;;;;;2.46;100.00;101151.19;9993197;29;20060;-74
2024/01/13 11:47:10;;;;;;;8.63;7.82;;;;;;;2.41;100.00;101145.75;9997875;29;20048;-74
2024/01/13 11:52:10;;;;;;;8.27;7.50;;;;;;;2.44;100.00;101126.38;10000038;29;20514;-73
2024/01/13 11:57:09;;;;;;;10.68;7.07;;;;;;;2.43;100.00;101114.72;9990734;29;20048;-74
2024/01/13 12:02:06;;;;;;;8.07;7.38;;;;;;;2.44;100.00;101110.19;9989882;29;20524;-73
2024/01/13 12:07:08;;;;;;;8.10;7.30;;;;;;;2.45;100.00;101101.00;9985328;29;20236;-74
2024/01/13 12:12:06;;;;;;;9.43;7.47;;;;;;;2.44;100.00;101093.97;9996643;29;20056;-74
2024/01/13 12:17:04;;;;;;;8.75;7.47;;;;;;;2.47;100.00;101088.06;9978012;29;20053;-74
2024/01/13 12:22:01;;;;;;;10.40;7.03;;;;;;;2.50;100.00;101082.16;9985924;29;20040;-73
2024/01/13 12:26:58;;;;;;;10.32;8.63;;;;;;;2.58;100.00;101062.00;9991577;29;20720;-74
2024/01/13 12:32:01;;;;;;;11.90;7.50;;;;;;;2.58;100.00;101051.19;9966929;29;20059;-73
2024/01/13 12:36:58;;;;;;;8.98;8.10;;;;;;;2.60;100.00;101049.03;9986749;29;20044;-73
2024/01/13 12:41:55;;;;;;;8.63;7.18;;;;;;;2.71;100.00;101029.16;9998217;29;20044;-73
2024/01/13 12:46:57;;;;;;;10.30;8.90;;;;;;;2.65;100.00;100995.91;9982661;29;20512;-73
2024/01/13 12:51:55;;;;;;;11.18;8.13;;;;;;;2.77;100.00;100973.31;9959640;29;20048;-73
2024/01/13 12:56:52;;;;;;;9.57;8.68;;;;;;;2.81;100.00;100971.72;9984142;29;20516;-73
2024/01/13 13:01:50;;;;;;;10.68;8.60;;;;;;;2.77;100.00;100960.63;9997087;29;20059;-72
2024/01/13 13:06:46;;;;;;;13.55;8.75;;;;;;;2.79;100.00;100960.38;9970889;29;20060;-73
2024/01/13 13:11:43;;;;;;;16.48;8.90;;;;;;;2.79;100.00;100961.19;9967631;29;20131;-72
2024/01/13 13:16:40;;;;;;;9.30;8.27;;;;;;;2.80;100.00;100929.59;9979030;29;20045;-72
2024/01/13 13:21:36;;;;;;;14.02;9.05;;;;;;;2.84;100.00;100930.69;9995304;29;20044;-72
2024/01/13 13:26:33;;;;;;;11.95;10.07;;;;;;;2.87;100.00;100917.47;9984709;29;20052;-72
2024/01/13 13:31:29;;;;;;;16.35;10.05;;;;;;;2.92;100.00;100917.53;9993965;29;20051;-72
2024/01/13 13:36:26;;;;;;;11.30;9.57;;;;;;;2.91;100.00;100909.66;9990163;29;20056;-72
2024/01/13 13:41:22;;;;;;;11.65;9.20;;;;;;;2.90;100.00;100894.53;9994687;29;20423;-72
2024/01/13 13:46:19;;;;;;;10.77;9.00;;;;;;;2.94;100.00;100887.53;9998235;29;20071;-72
2024/01/13 13:51:15;;;;;;;13.68;8.48;;;;;;;2.94;100.00;100874.03;10001658;29;20079;-72
2024/01/13 13:56:12;;;;;;;12.68;8.73;;;;;;;2.93;100.00;100902.94;9991151;29;20132;-72
2024/01/13 14:01:08;;;;;;;8.32;7.25;;;;;;;2.99;100.00;100897.56;9966081;29;20533;-72
2024/01/13 14:06:05;;;;;;;9.43;6.78;;;;;;;3.06;100.00;100917.03;9984714;29;20131;-72
2024/01/13 14:11:03;;;;;;;9.45;7.70;;;;;;;3.09;100.00;100917.34;9999377;29;20045;-72
2024/01/13 14:16:00;;;;;;;10.55;7.32;;;;;;;3.08;100.00;100907.59;10002960;29;20100;-72
2024/01/13 14:20:57;;;;;;;7.25;6.55;;;;;;;3.10;100.00;100897.34;10003005;29;20044;-72
2024/01/13 14:25:53;;;;;;;10.68;6.93;;;;;;;3.10;100.00;100896.53;10002997;29;20139;-72
2024/01/13 14:30:50;;;;;;;6.53;5.93;;;;;;;3.08;100.00;100890.56;10002454;29;20075;-72
2024/01/13 14:35:47;;;;;;;8.32;6.47;;;;;;;3.10;100.00;100905.44;10002483;29;20056;-72
2024/01/13 14:40:43;;;;;;;8.75;6.55;;;;;;;3.15;100.00;100893.84;9998967;29;20051;-72
2024/01/13 14:45:40;;;;;;;8.00;6.63;;;;;;;3.19;100.00;100894.13;9994878;29;20423;-72
2024/01/13 14:50:36;;;;;;;7.30;6.15;;;;;;;3.19;100.00;100889.53;10001940;29;20112;-71
2024/01/13 14:55:34;;;;;;;6.78;6.15;;;;;;;3.24;100.00;100875.25;9987919;29;20043;-72
2024/01/13 15:00:31;;;;;;;8.55;6.60;;;;;;;3.29;100.00;100883.34;10000524;29;20041;-72
2024/01/13 15:05:27;;;;;;;12.20;6.60;;;;;;;3.24;100.00;100880.66;9995381;29;20044;-72
2024/01/13 15:10:25;;;;;;;10.45;6.68;;;;;;;3.29;100.00;100891.47;10001100;29;20467;-72
2024/01/13 15:15:22;;;;;;;11.20;7.05;;;;;;;3.32;100.00;100882.84;9994403;29;20052;-72
2024/01/13 15:20:19;;;;;;;11.20;7.30;;;;;;;3.32;100.00;100880.16;10001252;29;20055;-72
2024/01/13 15:25:16;;;;;;;10.45;7.50;;;;;;;3.31;100.00;100875.81;9994216;29;20040;-72
2024/01/13 15:30:22;;;;;;;11.27;6.78;;;;;;;3.29;100.00;100861.75;10006308;29;20045;-73
2024/01/13 15:35:24;;;;;;;13.98;6.80;;;;;;;3.25;100.00;100860.63;10011153;29;20127;-72
2024/01/13 15:40:24;;;;;;;9.57;7.70;;;;;;;3.20;100.00;100852.53;10023701;29;20485;-73
2024/01/13 15:45:21;;;;;;;10.35;7.50;;;;;;;3.12;100.00;100846.56;10023627;29;20040;-72
2024/01/13 15:50:18;;;;;;;18.83;8.65;;;;;;;3.12;100.00;100846.56;9999957;29;20116;-72
2024/01/13 15:55:20;;;;;;;15.93;8.45;;;;;;;3.21;100.00;100848.75;10018241;29;20047;-73
2024/01/13 16:00:17;;;;;;;21.20;8.35;;;;;;;3.26;100.00;100859.56;10027120;29;20739;-72
2024/01/13 16:05:14;;;;;;;11.90;8.32;;;;;;;3.24;100.00;100837.41;9995137;29;20337;-73
2024/01/13 16:10:13;;;;;;;17.15;9.82;;;;;;;3.26;100.00;100825.25;9999678;29;20052;-73
2024/01/13 16:15:10;;;;;;;12.57;8.93;;;;;;;3.27;100.00;100826.88;9983420;29;20063;-72
2024/01/13 16:20:20;;;;;;;20.30;8.80;;;;;;;3.22;100.00;100834.97;9999062;29;20048;-72
2024/01/13 16:25:17;;;;;;;13.70;9.20;;;;;;;3.23;100.00;100846.59;9992219;29;20089;-72
2024/01/13 16:30:14;;;;;;;14.35;8.90;;;;;;;3.17;100.00;100827.66;9992246;29;20044;-73
2024/01/13 16:35:11;;;;;;;13.13;8.63;;;;;;;3.17;100.00;100826.84;10002984;29;20089;-72
2024/01/13 16:40:08;;;;;;;14.10;8.13;;;;;;;3.17;100.00;100811.44;9999885;29;20060;-73
2024/01/13 16:45:08;;;;;;;20.48;9.75;;;;;;;3.21;100.00;100821.72;9983531;29;20052;-73
2024/01/13 16:50:05;;;;;;;15.35;9.05;;;;;;;3.21;100.00;100819.84;9998150;29;20044;-72
2024/01/13 16:55:13;;;;;;;15.57;8.93;;;;;;;3.24;100.00;100829.31;9980542;29;20048;-73
2024/01/13 17:00:10;;;;;;;16.80;9.13;;;;;;;3.23;100.00;100825.00;9992915;29;20056;-72
2024/01/13 17:05:08;;;;;;;25.63;9.48;;;;;;;3.20;100.00;100830.91;9985384;29;20051;-72
2024/01/13 17:10:05;;;;;;;19.58;8.85;;;;;;;3.17;100.00;100827.66;9983901;29;20045;-72
2024/01/13 17:15:02;;;;;;;11.95;8.23;;;;;;;3.15;100.00;100837.91;9983539;29;20480;-73
2024/01/13 17:19:59;;;;;;;17.48;9.38;;;;;;;3.16;100.00;100847.66;9997034;29;20056;-73
2024/01/13 17:24:55;;;;;;;18.75;9.18;;;;;;;3.21;100.00;100849.56;9987881;29;20588;-73
2024/01/13 17:29:52;;;;;;;17.60;10.52;;;;;;;3.19;100.00;100850.91;9996734;29;20059;-73
2024/01/13 17:34:48;;;;;;;24.67;10.55;;;;;;;3.13;100.00;100837.38;9989741;29;20060;-73
2024/01/13 17:39:47;;;;;;;24.40;9.23;;;;;;;3.15;100.00;100840.59;10002155;29;20039;-73
2024/01/13 17:44:43;;;;;;;22.80;9.98;;;;;;;3.19;100.00;100829.28;9978360;29;20048;-73
2024/01/13 17:49:40;;;;;;;17.65;9.48;;;;;;;3.19;100.00;100834.69;9995332;29;20048;-73
2024/01/13 17:54:37;;;;;;;30.42;9.40;;;;;;;3.20;100.00;100837.13;9991244;29;20508;-73
2024/01/13 17:59:34;;;;;;;17.40;10.18;;;;;;;3.22;100.00;100850.38;9996228;29;20071;-73
2024/01/13 18:04:30;;;;;;;23.27;10.27;;;;;;;3.21;100.00;100851.47;9974194;29;20497;-73
2024/01/13 18:09:28;;;;;;;20.92;10.98;;;;;;;3.19;100.00;100840.91;9985711;29;20052;-74
2024/01/13 18:14:24;;;;;;;19.42;10.88;;;;;;;3.11;100.00;100833.28;9983340;29;20407;-73
2024/01/13 18:19:21;;;;;;;23.85;11.32;;;;;;;3.03;100.00;100831.94;9995390;29;20083;-74
2024/01/13 18:24:17;;;;;;;19.00;9.80;;;;;;;3.00;100.00;100824.38;9973547;29;20055;-73
2024/01/13 18:29:14;;;;;;;30.00;11.10;;;;;;;2.99;100.00;100820.03;9969075;29;20123;-74
2024/01/13 18:34:10;;;;;;;21.67;10.93;;;;;;;2.99;100.00;100817.31;9988489;29;20128;-74
2024/01/13 18:39:07;;;;;;;24.40;10.32;;;;;;;3.02;100.00;100806.00;10000571;29;20516;-74
2024/01/13 18:44:05;;;;;;;31.67;11.50;;;;;;;3.02;100.00;100803.31;9995624;29;20513;-74
2024/01/13 18:49:02;;;;;;;21.77;10.65;;;;;;;3.05;100.00;100794.66;9993426;29;20048;-74
2024/01/13 18:53:59;;;;;;;23.73;10.15;;;;;;;3.04;100.00;100784.94;9989015;29;20048;-74
2024/01/13 18:58:56;;;;;;;20.85;11.00;;;;;;;3.06;100.00;100777.34;9985605;29;20057;-73
2024/01/13 19:03:53;;;;;;;29.65;11.02;;;;;;;3.09;100.00;100774.16;9975834;29;20455;-73
2024/01/13 19:08:51;;;;;;;22.55;9.25;;;;;;;3.07;100.00;100762.00;9995023;29;20083;-74
2024/01/13 19:13:49;;;;;;;15.23;9.75;;;;;;;3.05;100.00;100770.34;9995225;29;20052;-73
2024/01/13 19:18:45;;;;;;;19.67;9.20;;;;;;;3.04;100.00;100770.59;10000704;29;20502;-73
2024/01/13 19:23:42;;;;;;;22.00;8.85;;;;;;;3.00;100.00;100735.22;9989123;29;20263;-74
2024/01/13 19:28:41;;;;;;;23.45;9.65;;;;;;;3.02;100.00;100721.44;10000990;29;20048;-74
2024/01/13 19:33:38;;;;;;;29.30;10.30;;;;;;;3.01;100.00;100698.22;9996072;29;20048;-74
2024/01/13 19:38:35;;;;;;;28.35;9.45;;;;;;;3.04;100.00;100686.88;9991766;29;20056;-73
2024/01/13 19:43:31;;;;;;;21.20;9.15;;;;;;;3.04;100.00;100693.09;10003012;29;20146;-74
2024/01/13 19:48:28;;;;;;;26.45;9.35;;;;;;;3.05;100.00;100710.09;9966417;29;20044;-73
2024/01/13 19:53:25;;;;;;;19.75;7.10;;;;;;;3.03;100.00;100717.66;9968942;29;20045;-72
2024/01/13 19:58:21;;;;;;;22.98;7.53;;;;;;;3.01;100.00;100704.41;9996352;29;20440;-71
2024/01/13 20:03:18;;;;;;;15.68;7.90;;;;;;;2.95;100.00;100705.50;9984174;29;20103;-71
2024/01/13 20:08:17;;;;;;;25.27;8.13;;;;;;;2.85;100.00;100679.25;9994997;29;20040;-71
2024/01/13 20:13:13;;;;;;;10.70;7.65;;;;;;;2.82;100.00;100674.41;9994876;29;20745;-71
2024/01/13 20:18:10;;;;;;;14.50;7.82;;;;;;;2.74;100.00;100677.66;9994000;29;20048;-72
2024/01/13 20:23:07;;;;;;;9.38;7.45;;;;;;;2.70;100.00;100644.97;9992969;29;20127;-72
2024/01/13 20:28:03;;;;;;;12.40;8.48;;;;;;;2.69;100.00;100639.81;9983099;29;20060;-72
2024/01/13 20:33:00;;;;;;;12.25;8.30;;;;;;;2.71;100.00;100638.47;9992075;29;20048;-72
2024/01/13 20:38:00;;;;;;;13.90;8.00;;;;;;;2.73;100.00;100630.91;9987895;29;20103;-72
2024/01/13 20:42:58;;;;;;;12.57;7.53;;;;;;;2.82;100.00;100635.81;9967682;29;20539;-72
2024/01/13 20:47:55;;;;;;;13.02;7.32;;;;;;;2.81;100.00;100631.47;9994897;29;20048;-71
2024/01/13 20:52:55;;;;;;;11.57;7.90;;;;;;;2.81;100.00;100621.50;9997970;29;20071;-72
2024/01/13 20:57:51;;;;;;;14.68;6.97;;;;;;;2.80;100.00;100600.16;9981606;29;20044;-72
2024/01/13 21:02:48;;;;;;;16.40;7.68;;;;;;;2.88;100.00;100580.72;9992103;29;20062;-72
2024/01/13 21:07:47;;;;;;;12.23;7.10;;;;;;;2.91;100.00;100580.19;9982422;29;20079;-71
2024/01/13 21:12:49;;;;;;;19.35;6.97;;;;;;;2.88;100.00;100565.34;9990154;29;20040;-72
2024/01/13 21:17:46;;;;;;;20.00;7.70;;;;;;;2.87;100.00;100568.28;9992920;29;20052;-72
2024/01/13 21:22:43;;;;;;;19.63;7.43;;;;;;;2.82;100.00;100563.69;9996226;29;20515;-71
2024/01/13 21:27:39;;;;;;;15.32;7.68;;;;;;;2.80;100.00;100562.34;10002470;29;20052;-74
2024/01/13 21:32:36;;;;;;;15.30;7.03;;;;;;;2.82;100.00;100554.78;9991659;29;20067;-72
2024/01/13 21:37:33;;;;;;;10.18;8.40;;;;;;;2.81;100.00;100561.25;9982220;29;20059;-72
2024/01/13 21:42:30;;;;;;;16.15;8.38;;;;;;;2.73;100.00;100552.63;9995761;29;20135;-72
2024/01/13 21:47:26;;;;;;;12.70;8.55;;;;;;;2.71;100.00;100533.16;9981508;29;20041;-72
2024/01/13 21:52:23;;;;;;;14.35;10.38;;;;;;;2.70;100.00;100542.38;9995914;29;20139;-72
2024/01/13 21:57:21;;;;;;;14.82;8.55;;;;;;;2.64;100.00;100537.22;9989415;29;20052;-72
2024/01/13 22:02:17;;;;;;;13.57;8.90;;;;;;;2.59;100.00;100529.94;9995875;29;20059;-72
2024/01/13 22:07:17;;;;;;;13.40;8.43;;;;;;;2.55;100.00;100528.84;9988800;29;20048;-72
2024/01/13 22:12:14;;;;;;;13.85;8.40;;;;;;;2.56;100.00;100524.28;9993967;29;20040;-73
2024/01/13 22:17:12;;;;;;;13.48;8.52;;;;;;;2.59;100.00;100529.94;10033333;29;20135;-72
2024/01/13 22:22:09;;;;;;;9.57;8.57;;;;;;;2.61;100.00;100527.78;10019018;29;20896;-72
2024/01/13 22:27:06;;;;;;;18.48;8.95;;;;;;;2.63;100.00;100531.03;10000454;29;20048;-73
2024/01/13 22:32:02;;;;;;;12.50;9.35;;;;;;;2.64;100.00;100534.53;9991760;29;20086;-72
2024/01/13 22:36:59;;;;;;;17.77;9.18;;;;;;;2.59;100.00;100554.22;9988043;29;20052;-72
2024/01/13 22:41:56;;;;;;;14.50;8.93;;;;;;;2.56;100.00;100551.28;10001809;29;20040;-73
2024/01/13 22:46:53;;;;;;;20.10;9.52;;;;;;;2.55;100.00;100566.63;9987190;29;20163;-72
2024/01/13 22:51:49;;;;;;;16.02;9.10;;;;;;;2.49;100.00;100560.44;9991526;29;20055;-73